Αρχική σελίδα
METAR-TAF:

METAR-TAF

Αεροδρόμια :

Τσιτά, Ρωσία

γεωγραφικό πλάτος: 52-05N, γεωγραφικό μήκος: 113-29E, υψόμετρο: 685 μ

Παρών καιρός

Η αναφορά έγινε 43 λεπτά πριν, στις 23:30 UTC
Άνεμος 2 kt από Ν
Θερμοκρασία -2°C
Υγρασία 54%
Πίεση 1018 hPa
Ορατότητα 10 χλμ και άνω

METAR: UIAA 182330Z 17001MPS 9999 NSC M02/M10 Q1018 R29/CLRD70 NOSIG RMK QFE705/0940

Χρόνος: 09:13 (00:13 UTC)

Πρόγνωση Καιρού

Η αναφορά έγινε 1 ώρα και 13 λεπτά πριν, στις 23:00 UTC
Η πρόγνωση ισχύει από τις 19 στις 00 UTC έως τις 19 στις 24 UTC
Άνεμος 6 kt από με ριπές μέχρι 16 kt
Ορατότητα 10 χλμ και άνω
Διάσπαρτα νέφη σε ύψος 4000 πόδια, Σωρειτομελανίτες.

TAF: UIAA 182300Z 1900/1924 32003G08MPS 9999 SCT040CB

Μετεωρολογικές αναφορές και προγνώσεις για περισσότερα από 4000 αεροδρόμια (δελτία METAR και TAF).

Οι διαθέσιμοι σταθμοί απεικονίζονται στο χάρτη με κίτρινες και κόκκινες κουκκίδες.

Μετακινήστε το ποντίκι πάνω από τις κουκκίδες για να δείτε το όνομα του σταθμού.

Στη συνέχεια, κάντε κλικ για να δείτε τις μετεωρολογικές αναφορές και τις προγνώσεις καιρού.

Για να αλλάξετε το χάρτη: κάντε κλικ στα πράσινα κουμπιά με τον μαύρο σταυρό για να ζουμάρετε, στο πράσινο κουμπί με την παύλα για να αφαιρέσετε το ζουμ ή στα πράσινα βέλη για να αντιπαραβάλλετε χάρτες.


METAR-TAF: